Time;durP1;ratioP1;P1;durP2;ratioP2;P2;SDS_P1;SDS_P2;PMS_P1;PMS_P2;Temp;Humidity;BMP_temperature;BMP_pressure;BME280_temperature;BME280_humidity;BME280_pressure;Samples;Min_cycle;Max_cycle;Signal;HPM_P1;HPM_P2
2021/12/03 00:01:00;;;;;;;8.20;4.22;;;-0.10;99.90;;;;;;5134530;27;20118;-65
2021/12/03 00:03:26;;;;;;;10.25;4.22;;;-0.10;99.90;;;;;;5114839;28;20528;-65
2021/12/03 00:05:55;;;;;;;10.65;3.97;;;-0.20;99.90;;;;;;5125302;28;20062;-65
2021/12/03 00:08:21;;;;;;;9.73;3.70;;;0.00;99.90;;;;;;5123235;27;20058;-65
2021/12/03 00:10:54;;;;;;;7.45;4.18;;;-0.10;99.90;;;;;;5117216;27;20055;-65
2021/12/03 00:13:20;;;;;;;7.80;3.40;;;-0.10;99.90;;;;;;5122747;27;20039;-65
2021/12/03 00:15:47;;;;;;;8.10;3.70;;;-0.10;99.90;;;;;;5124009;28;20103;-65
2021/12/03 00:18:12;;;;;;;9.35;4.18;;;-0.20;99.90;;;;;;5134853;27;20056;-65
2021/12/03 00:20:39;;;;;;;13.15;4.85;;;-0.20;99.90;;;;;;5135993;27;20093;-65
2021/12/03 00:23:06;;;;;;;8.00;4.30;;;-0.10;99.90;;;;;;5148306;27;20057;-65
2021/12/03 00:25:33;;;;;;;6.18;4.25;;;-0.10;99.90;;;;;;5119734;27;20067;-65
2021/12/03 00:28:00;;;;;;;9.10;4.68;;;-0.10;99.90;;;;;;5143191;27;20047;-65
2021/12/03 00:30:26;;;;;;;6.80;4.07;;;-0.10;99.90;;;;;;5142982;27;20047;-65
2021/12/03 00:32:51;;;;;;;9.45;4.65;;;-0.10;99.90;;;;;;5136331;27;20091;-65
2021/12/03 00:35:18;;;;;;;8.35;4.85;;;0.00;99.90;;;;;;5137302;27;20050;-65
2021/12/03 00:37:45;;;;;;;10.60;5.15;;;0.00;99.90;;;;;;5144319;27;20053;-65
2021/12/03 00:40:14;;;;;;;11.60;5.65;;;0.10;99.90;;;;;;5129526;27;20043;-65
2021/12/03 00:42:41;;;;;;;12.77;4.90;;;0.20;99.90;;;;;;5126516;27;20099;-65
2021/12/03 00:45:10;;;;;;;9.05;4.80;;;0.20;99.90;;;;;;5114320;27;20046;-65
2021/12/03 00:47:36;;;;;;;11.25;5.10;;;0.30;99.90;;;;;;5135117;27;20538;-65
2021/12/03 00:50:03;;;;;;;9.95;5.47;;;0.30;99.90;;;;;;5135041;27;20094;-65
2021/12/03 00:52:29;;;;;;;11.82;5.60;;;0.40;99.90;;;;;;5116397;28;20100;-65
2021/12/03 00:54:54;;;;;;;12.65;5.75;;;0.40;99.90;;;;;;5114260;27;20051;-65
2021/12/03 00:57:20;;;;;;;10.13;6.70;;;0.50;99.90;;;;;;5123009;27;20067;-65
2021/12/03 00:59:46;;;;;;;15.05;7.72;;;0.60;99.90;;;;;;5117248;27;20058;-65
2021/12/03 01:02:12;;;;;;;11.98;6.13;;;0.70;99.90;;;;;;5113149;28;20118;-65
2021/12/03 01:04:37;;;;;;;12.07;6.53;;;0.70;99.90;;;;;;5141278;27;20126;-65
2021/12/03 01:07:03;;;;;;;15.77;7.47;;;0.80;99.90;;;;;;5123065;27;20043;-65
2021/12/03 01:09:31;;;;;;;13.23;7.47;;;0.70;99.90;;;;;;5133982;27;20043;-65
2021/12/03 01:11:58;;;;;;;12.57;7.50;;;0.70;99.90;;;;;;5119612;27;20110;-65
2021/12/03 01:14:24;;;;;;;14.27;7.22;;;0.70;99.90;;;;;;5122360;27;20043;-65
2021/12/03 01:16:50;;;;;;;14.60;7.30;;;0.70;99.90;;;;;;5134734;27;20438;-65
2021/12/03 01:19:16;;;;;;;12.18;7.72;;;0.80;99.90;;;;;;5141604;27;20052;-65
2021/12/03 01:21:42;;;;;;;12.00;6.70;;;0.80;99.90;;;;;;5139575;27;20116;-65
2021/12/03 01:24:08;;;;;;;11.63;6.68;;;0.80;99.90;;;;;;5112859;27;20066;-65
2021/12/03 01:26:35;;;;;;;12.68;7.20;;;0.80;99.90;;;;;;5132836;27;20043;-65
2021/12/03 01:29:02;;;;;;;13.00;7.50;;;0.80;99.90;;;;;;5129731;27;20125;-65
2021/12/03 01:31:28;;;;;;;11.00;6.75;;;0.80;99.90;;;;;;5139823;27;20085;-65
2021/12/03 01:33:54;;;;;;;13.88;7.40;;;0.80;99.90;;;;;;5128311;27;20047;-64
2021/12/03 01:36:20;;;;;;;12.70;7.20;;;0.80;99.90;;;;;;5136711;27;20091;-65
2021/12/03 01:38:46;;;;;;;11.10;6.43;;;0.90;99.90;;;;;;5122812;27;20047;-65
2021/12/03 01:41:12;;;;;;;12.02;6.82;;;0.90;99.90;;;;;;5125493;27;20039;-65
2021/12/03 01:43:39;;;;;;;13.10;6.75;;;0.80;99.90;;;;;;5142555;27;20043;-65
2021/12/03 01:46:08;;;;;;;14.20;7.05;;;0.90;99.90;;;;;;5146625;27;20080;-64
2021/12/03 01:48:35;;;;;;;13.50;7.03;;;0.80;99.90;;;;;;5134576;27;20035;-64
2021/12/03 01:51:02;;;;;;;11.68;6.10;;;0.90;99.90;;;;;;5126295;27;20281;-65
2021/12/03 01:53:30;;;;;;;13.13;7.13;;;0.90;99.90;;;;;;5121934;27;20058;-65
2021/12/03 01:56:00;;;;;;;11.65;8.02;;;1.00;99.90;;;;;;5126977;27;20096;-64
2021/12/03 01:58:26;;;;;;;15.27;9.02;;;0.90;99.90;;;;;;5115513;27;20097;-65
2021/12/03 02:00:55;;;;;;;15.43;9.30;;;0.90;99.90;;;;;;5120632;27;20506;-65
2021/12/03 02:03:24;;;;;;;14.85;10.40;;;0.90;99.90;;;;;;5123281;27;20068;-65
2021/12/03 02:05:50;;;;;;;15.88;10.45;;;0.90;99.90;;;;;;5113362;28;20051;-65
2021/12/03 02:08:16;;;;;;;16.65;11.23;;;1.00;99.90;;;;;;5115699;27;20047;-64
2021/12/03 02:10:42;;;;;;;18.17;11.98;;;0.90;99.90;;;;;;5128072;27;20524;-65
2021/12/03 02:13:11;;;;;;;19.42;12.35;;;0.90;99.90;;;;;;5125979;27;20085;-65
2021/12/03 02:15:38;;;;;;;19.55;14.10;;;0.90;99.90;;;;;;5133702;27;20039;-65
2021/12/03 02:18:05;;;;;;;23.02;15.93;;;0.90;99.90;;;;;;5118659;27;20048;-65
2021/12/03 02:20:31;;;;;;;24.73;16.50;;;0.90;99.90;;;;;;5125506;27;20100;-64
2021/12/03 02:22:57;;;;;;;23.40;16.35;;;0.90;99.90;;;;;;5109545;27;20042;-65
2021/12/03 02:25:24;;;;;;;23.98;17.77;;;0.90;99.90;;;;;;5133113;27;20075;-65
2021/12/03 02:27:53;;;;;;;25.95;18.15;;;0.90;99.90;;;;;;5136295;27;20039;-65
2021/12/03 02:30:21;;;;;;;28.38;18.98;;;0.90;99.90;;;;;;5129782;27;20047;-65
2021/12/03 02:32:49;;;;;;;24.10;19.35;;;1.00;99.90;;;;;;5139729;27;20050;-65
2021/12/03 02:35:16;;;;;;;27.52;18.38;;;0.90;99.90;;;;;;5136497;27;20050;-65
2021/12/03 02:37:42;;;;;;;26.13;19.50;;;1.00;99.90;;;;;;5130995;27;20039;-65
2021/12/03 02:40:09;;;;;;;28.02;19.60;;;0.90;99.90;;;;;;5118682;27;20059;-65
2021/12/03 02:42:35;;;;;;;29.67;20.23;;;1.00;99.90;;;;;;5119359;27;20047;-65
2021/12/03 02:45:03;;;;;;;25.33;19.13;;;1.00;99.90;;;;;;5122220;27;20035;-65
2021/12/03 02:47:29;;;;;;;26.27;20.73;;;1.00;99.90;;;;;;5119905;27;20047;-65
2021/12/03 02:49:54;;;;;;;29.05;20.65;;;1.10;99.90;;;;;;5120043;27;20050;-65
2021/12/03 02:52:20;;;;;;;25.05;20.17;;;1.00;99.90;;;;;;5109167;28;20067;-65
2021/12/03 02:54:46;;;;;;;26.98;19.13;;;1.00;99.90;;;;;;5126712;28;20048;-65
2021/12/03 02:57:12;;;;;;;27.02;19.25;;;1.00;99.90;;;;;;5121241;27;20079;-65
2021/12/03 02:59:37;;;;;;;23.42;17.83;;;1.10;99.90;;;;;;5129942;27;20043;-65
2021/12/03 03:02:03;;;;;;;25.23;18.23;;;1.10;99.90;;;;;;5121818;27;20039;-65
2021/12/03 03:04:29;;;;;;;24.70;18.60;;;1.10;99.90;;;;;;5126337;27;20509;-65
2021/12/03 03:06:55;;;;;;;25.90;19.25;;;1.10;99.90;;;;;;5114916;28;20103;-65
2021/12/03 03:09:22;;;;;;;27.08;18.88;;;1.00;99.90;;;;;;5126913;28;20050;-65
2021/12/03 03:11:47;;;;;;;24.27;18.60;;;1.00;99.90;;;;;;5116196;28;20059;-65
2021/12/03 03:14:13;;;;;;;23.67;18.52;;;1.10;99.90;;;;;;5140215;27;20165;-65
2021/12/03 03:16:39;;;;;;;24.38;17.20;;;1.00;99.90;;;;;;5126690;27;20180;-65
2021/12/03 03:19:18;;;;;;;22.63;17.60;;;1.10;99.90;;;;;;5117203;27;20140;-65
2021/12/03 03:21:45;;;;;;;24.48;17.73;;;1.10;99.90;;;;;;5126762;28;20047;-65
2021/12/03 03:24:11;;;;;;;21.15;16.92;;;1.20;99.90;;;;;;5115510;28;20034;-65
2021/12/03 03:26:39;;;;;;;23.60;17.58;;;1.20;99.90;;;;;;5119636;27;20050;-65
2021/12/03 03:29:08;;;;;;;25.63;17.92;;;1.10;99.90;;;;;;5123520;27;20050;-65
2021/12/03 03:31:36;;;;;;;21.38;17.42;;;1.10;99.90;;;;;;5120084;28;20100;-65
2021/12/03 03:34:02;;;;;;;24.48;19.35;;;1.20;99.90;;;;;;5127015;28;20047;-65
2021/12/03 03:36:32;;;;;;;25.73;18.63;;;1.10;99.90;;;;;;5120196;28;20046;-65
2021/12/03 03:38:58;;;;;;;21.13;18.15;;;1.10;99.90;;;;;;5127508;28;20055;-64
2021/12/03 03:41:24;;;;;;;27.95;20.05;;;1.00;99.90;;;;;;5106282;28;20040;-65
2021/12/03 03:43:50;;;;;;;27.10;18.98;;;1.00;99.90;;;;;;5122089;28;20047;-65
2021/12/03 03:46:16;;;;;;;20.38;17.38;;;0.90;99.90;;;;;;5123287;28;20122;-65
2021/12/03 03:48:42;;;;;;;25.42;19.27;;;0.90;99.90;;;;;;5125868;28;20048;-65
2021/12/03 03:51:08;;;;;;;23.40;18.50;;;0.90;99.90;;;;;;5123314;28;20103;-64
2021/12/03 03:53:34;;;;;;;20.60;17.17;;;1.10;99.90;;;;;;5123502;28;20111;-65
2021/12/03 03:55:59;;;;;;;23.98;19.65;;;1.10;99.90;;;;;;5114039;28;20047;-65
2021/12/03 03:58:25;;;;;;;26.65;17.77;;;1.20;99.90;;;;;;5138262;28;20040;-65
2021/12/03 04:00:51;;;;;;;21.08;16.67;;;1.30;99.90;;;;;;5132355;28;20050;-65
2021/12/03 04:03:17;;;;;;;25.65;18.60;;;1.30;99.90;;;;;;5124859;28;20050;-65
2021/12/03 04:05:43;;;;;;;24.73;18.13;;;1.20;99.90;;;;;;5131439;28;20043;-65
2021/12/03 04:08:09;;;;;;;21.40;17.17;;;1.20;99.90;;;;;;5123623;28;20039;-65
2021/12/03 04:10:35;;;;;;;19.50;16.27;;;1.20;99.90;;;;;;5140332;28;20058;-65
2021/12/03 04:13:01;;;;;;;22.52;19.30;;;1.10;99.90;;;;;;5125091;28;20495;-65
2021/12/03 04:15:27;;;;;;;26.08;16.08;;;1.10;99.90;;;;;;5112600;28;20039;-65
2021/12/03 04:17:53;;;;;;;26.15;20.20;;;1.20;99.90;;;;;;5109336;28;20051;-64
2021/12/03 04:20:21;;;;;;;23.20;17.77;;;1.10;99.90;;;;;;5145261;28;20031;-65
2021/12/03 04:22:47;;;;;;;22.73;18.48;;;1.20;99.90;;;;;;5126773;27;20058;-65
2021/12/03 04:25:16;;;;;;;23.75;18.13;;;1.10;99.90;;;;;;5130511;27;20044;-65
2021/12/03 04:27:43;;;;;;;23.90;18.13;;;1.10;99.90;;;;;;5120869;27;20039;-65
2021/12/03 04:30:14;;;;;;;22.08;18.23;;;1.10;99.90;;;;;;5143175;27;20039;-65
2021/12/03 04:32:40;;;;;;;23.25;17.73;;;1.10;99.90;;;;;;5123647;27;20047;-65
2021/12/03 04:35:07;;;;;;;20.80;17.52;;;1.10;99.90;;;;;;5147776;27;20039;-65
2021/12/03 04:37:33;;;;;;;22.23;18.70;;;1.20;99.90;;;;;;5123923;27;20083;-65
2021/12/03 04:39:58;;;;;;;21.88;19.42;;;1.00;99.90;;;;;;5139886;27;20046;-65
2021/12/03 04:42:24;;;;;;;20.95;15.90;;;1.00;99.90;;;;;;5141117;27;20043;-64
2021/12/03 04:44:50;;;;;;;21.27;15.75;;;1.10;99.90;;;;;;5120711;27;20408;-64
2021/12/03 04:47:16;;;;;;;22.38;18.08;;;1.10;99.90;;;;;;5139877;27;20031;-65
2021/12/03 04:49:41;;;;;;;22.42;16.98;;;1.10;99.90;;;;;;5148202;27;20046;-65
2021/12/03 04:52:07;;;;;;;22.55;18.08;;;1.20;99.90;;;;;;5147679;27;20046;-65
2021/12/03 04:54:33;;;;;;;21.65;17.27;;;1.20;99.90;;;;;;5130873;27;20040;-65
2021/12/03 04:56:59;;;;;;;18.23;15.55;;;1.20;99.90;;;;;;5126513;27;20051;-64
2021/12/03 04:59:25;;;;;;;21.20;18.23;;;1.30;99.90;;;;;;5125389;27;20047;-65
2021/12/03 05:01:55;;;;;;;20.83;18.60;;;1.20;99.90;;;;;;5119524;27;20039;-64
2021/12/03 05:04:21;;;;;;;20.50;17.02;;;1.10;99.90;;;;;;5119766;27;20051;-65
2021/12/03 05:07:05;;;;;;;20.15;16.35;;;1.10;99.90;;;;;;5139916;27;20100;-65
2021/12/03 05:09:31;;;;;;;18.35;16.27;;;1.00;99.90;;;;;;5128980;27;20087;-65
2021/12/03 05:11:58;;;;;;;19.98;16.30;;;1.10;99.90;;;;;;5129030;27;20051;-65
2021/12/03 05:14:24;;;;;;;21.00;18.02;;;1.10;99.90;;;;;;5120182;27;20036;-65
2021/12/03 05:16:49;;;;;;;23.98;18.55;;;0.90;99.90;;;;;;5130056;27;20501;-65
2021/12/03 05:19:17;;;;;;;19.75;14.40;;;0.90;99.90;;;;;;5126286;28;20047;-65
2021/12/03 05:21:43;;;;;;;19.10;17.08;;;1.10;99.90;;;;;;5119515;27;20099;-65
2021/12/03 05:24:09;;;;;;;21.70;17.85;;;1.20;99.90;;;;;;5126870;27;20050;-65
2021/12/03 05:26:37;;;;;;;23.52;16.50;;;1.00;99.90;;;;;;5127972;27;20145;-65
2021/12/03 05:29:05;;;;;;;20.67;18.52;;;1.10;99.90;;;;;;5114431;28;20059;-65
2021/12/03 05:31:31;;;;;;;21.10;18.73;;;1.00;99.90;;;;;;5125309;27;20043;-65
2021/12/03 05:33:57;;;;;;;25.25;18.60;;;1.10;99.90;;;;;;5118135;28;20071;-65
2021/12/03 05:36:23;;;;;;;21.75;18.90;;;1.10;99.90;;;;;;5126881;27;20039;-65
2021/12/03 05:38:49;;;;;;;19.58;17.58;;;1.00;99.90;;;;;;5142100;27;20089;-65
2021/12/03 05:41:15;;;;;;;23.67;18.73;;;1.10;99.90;;;;;;5098563;27;20053;-65
2021/12/03 05:43:41;;;;;;;21.10;17.38;;;1.00;99.90;;;;;;5092541;27;20052;-65
2021/12/03 05:46:07;;;;;;;24.95;18.77;;;1.10;99.90;;;;;;5139632;27;20074;-65
2021/12/03 05:48:33;;;;;;;21.02;16.35;;;1.00;99.90;;;;;;5138706;27;20050;-65
2021/12/03 05:50:59;;;;;;;23.80;17.80;;;1.20;99.90;;;;;;5073370;28;20127;-64
2021/12/03 05:53:25;;;;;;;27.92;20.05;;;1.10;99.90;;;;;;5106346;27;20043;-64
2021/12/03 05:55:51;;;;;;;20.42;17.83;;;1.10;99.90;;;;;;5104997;27;20051;-64
2021/12/03 05:58:18;;;;;;;24.45;18.10;;;1.20;99.90;;;;;;5120763;27;20039;-64
2021/12/03 06:00:44;;;;;;;23.50;19.52;;;1.10;99.90;;;;;;5109247;27;20039;-64
2021/12/03 06:03:11;;;;;;;24.73;16.70;;;1.10;99.90;;;;;;5136875;27;20123;-63
2021/12/03 06:05:39;;;;;;;23.08;16.83;;;1.10;99.90;;;;;;5109307;27;20542;-64
2021/12/03 06:08:05;;;;;;;23.15;17.42;;;1.20;99.90;;;;;;5137727;27;20047;-63
2021/12/03 06:10:30;;;;;;;23.55;17.30;;;1.20;99.90;;;;;;5115171;27;20453;-67
2021/12/03 06:12:56;;;;;;;26.02;16.48;;;1.30;99.90;;;;;;5091854;28;20162;-63
2021/12/03 06:15:22;;;;;;;22.67;17.88;;;1.30;99.90;;;;;;5102645;28;20147;-64
2021/12/03 06:17:48;;;;;;;27.30;17.50;;;1.30;99.90;;;;;;5057276;28;20036;-69
2021/12/03 06:20:16;;;;;;;21.92;17.58;;;1.20;99.90;;;;;;5111550;28;20047;-63
2021/12/03 06:22:42;;;;;;;22.23;18.20;;;1.20;99.90;;;;;;5105406;28;20107;-63
2021/12/03 06:25:10;;;;;;;23.60;17.75;;;1.30;99.90;;;;;;5097478;28;20193;-63
2021/12/03 06:27:38;;;;;;;25.75;17.70;;;1.30;99.90;;;;;;5106290;28;20070;-63
2021/12/03 06:30:10;;;;;;;23.33;16.67;;;1.30;99.90;;;;;;5114411;28;20526;-63
2021/12/03 06:32:37;;;;;;;21.48;17.42;;;1.40;99.90;;;;;;5105962;28;20056;-63
2021/12/03 06:35:05;;;;;;;23.90;18.00;;;1.40;99.90;;;;;;5094668;28;20386;-63
2021/12/03 06:37:31;;;;;;;20.38;16.02;;;1.40;99.90;;;;;;5087726;28;20154;-63
2021/12/03 06:39:57;;;;;;;24.75;16.65;;;1.40;99.90;;;;;;5084757;28;20071;-63
2021/12/03 06:42:22;;;;;;;24.17;17.85;;;1.40;99.90;;;;;;5080427;28;20048;-63
2021/12/03 06:44:48;;;;;;;20.00;15.15;;;1.50;99.90;;;;;;5096038;28;20449;-63
2021/12/03 06:47:14;;;;;;;22.02;16.65;;;1.50;99.90;;;;;;5081808;28;20047;-63
2021/12/03 06:49:40;;;;;;;21.02;15.15;;;1.50;99.90;;;;;;5095633;28;20048;-63
2021/12/03 06:52:09;;;;;;;20.08;15.57;;;1.50;99.90;;;;;;5073294;28;20123;-63
2021/12/03 06:54:35;;;;;;;23.42;17.17;;;1.60;99.90;;;;;;5105231;28;20043;-64
2021/12/03 06:57:04;;;;;;;23.85;16.05;;;1.50;99.90;;;;;;5090755;28;20123;-65
2021/12/03 06:59:31;;;;;;;21.38;16.25;;;1.50;99.90;;;;;;5111756;28;20074;-64
2021/12/03 07:01:57;;;;;;;22.48;15.80;;;1.60;99.90;;;;;;5089715;28;20048;-64
2021/12/03 07:04:23;;;;;;;20.95;14.48;;;1.60;99.90;;;;;;5105128;28;20463;-65
2021/12/03 07:06:49;;;;;;;21.58;15.77;;;1.60;99.90;;;;;;5094217;28;20576;-64
2021/12/03 07:09:16;;;;;;;20.25;15.25;;;1.60;99.90;;;;;;5116357;27;20086;-64
2021/12/03 07:11:41;;;;;;;23.00;15.88;;;1.70;99.90;;;;;;5093378;28;20051;-65
2021/12/03 07:14:07;;;;;;;20.90;15.75;;;1.60;99.90;;;;;;5115322;28;20039;-65
2021/12/03 07:16:34;;;;;;;25.15;16.88;;;1.60;99.90;;;;;;5103357;28;20055;-64
2021/12/03 07:19:00;;;;;;;24.90;16.42;;;1.70;99.90;;;;;;5106970;28;20035;-65
2021/12/03 07:21:26;;;;;;;22.67;15.50;;;1.70;99.90;;;;;;5096896;28;20557;-65
2021/12/03 07:23:54;;;;;;;26.85;15.88;;;1.80;99.90;;;;;;5089776;28;20054;-65
2021/12/03 07:26:21;;;;;;;26.42;16.65;;;1.80;99.90;;;;;;5094485;28;20051;-64
2021/12/03 07:28:47;;;;;;;24.30;16.13;;;1.80;99.90;;;;;;5090844;28;20044;-64
2021/12/03 07:31:14;;;;;;;27.95;17.98;;;1.90;99.90;;;;;;5101103;28;20408;-64
2021/12/03 07:33:40;;;;;;;25.20;17.48;;;1.80;99.90;;;;;;5097511;28;20562;-64
2021/12/03 07:36:06;;;;;;;26.77;18.75;;;1.80;99.90;;;;;;5096269;28;20163;-64
2021/12/03 07:38:33;;;;;;;27.63;17.45;;;1.80;99.90;;;;;;5114705;28;20048;-64
2021/12/03 07:40:59;;;;;;;29.10;18.95;;;1.90;99.90;;;;;;5087778;28;20040;-64
2021/12/03 07:43:25;;;;;;;29.05;18.85;;;1.80;99.90;;;;;;5090580;28;20033;-64
2021/12/03 07:45:51;;;;;;;25.17;17.83;;;1.80;99.90;;;;;;5105939;28;20035;-64
2021/12/03 07:48:21;;;;;;;33.22;19.48;;;1.90;99.90;;;;;;5096835;28;20082;-64
2021/12/03 07:50:47;;;;;;;27.02;18.23;;;1.90;99.90;;;;;;5111603;28;20055;-64
2021/12/03 07:53:16;;;;;;;25.92;17.60;;;1.90;99.90;;;;;;5081702;28;20082;-64
2021/12/03 07:55:43;;;;;;;29.70;18.92;;;2.00;99.90;;;;;;5111439;28;20048;-64
2021/12/03 07:58:09;;;;;;;25.92;15.90;;;1.90;99.90;;;;;;5106131;28;20062;-61
2021/12/03 08:00:35;;;;;;;28.92;18.65;;;1.90;99.90;;;;;;5114027;28;20077;-61
2021/12/03 08:03:01;;;;;;;33.70;19.95;;;2.00;99.90;;;;;;5099350;28;20044;-61
2021/12/03 08:05:27;;;;;;;26.10;18.95;;;2.00;99.90;;;;;;5104325;28;20032;-61
2021/12/03 08:07:52;;;;;;;33.88;19.85;;;2.10;99.90;;;;;;5105217;28;20606;-62
2021/12/03 08:10:18;;;;;;;31.73;21.25;;;2.10;99.90;;;;;;5122289;27;20083;-62
2021/12/03 08:12:46;;;;;;;29.38;18.27;;;2.00;99.90;;;;;;5093377;27;20342;-62
2021/12/03 08:15:14;;;;;;;33.45;21.15;;;2.10;99.90;;;;;;5119916;27;20039;-60
2021/12/03 08:17:40;;;;;;;32.40;20.50;;;2.10;99.90;;;;;;5108115;27;20067;-60
2021/12/03 08:20:07;;;;;;;32.13;21.00;;;2.00;99.90;;;;;;5130662;27;20147;-60
2021/12/03 08:22:34;;;;;;;31.55;20.58;;;2.00;99.90;;;;;;5116628;27;20533;-60
2021/12/03 08:24:59;;;;;;;35.60;21.48;;;2.00;99.90;;;;;;5104326;27;20035;-60
2021/12/03 08:27:25;;;;;;;34.22;21.88;;;2.00;99.90;;;;;;5105054;27;20073;-60
2021/12/03 08:29:51;;;;;;;33.97;18.77;;;2.00;99.90;;;;;;5109072;27;20052;-60
2021/12/03 08:32:17;;;;;;;37.05;23.20;;;2.20;99.90;;;;;;5121057;27;20043;-60
2021/12/03 08:34:43;;;;;;;38.90;22.23;;;2.20;99.90;;;;;;5132716;27;20039;-60
2021/12/03 08:37:10;;;;;;;37.33;24.48;;;2.10;99.90;;;;;;5128594;27;20050;-60
2021/12/03 08:39:36;;;;;;;46.60;24.25;;;2.10;99.90;;;;;;5105244;27;20036;-60
2021/12/03 08:42:04;;;;;;;40.83;25.70;;;2.10;99.90;;;;;;5110316;27;20482;-60
2021/12/03 08:44:30;;;;;;;38.83;25.00;;;2.10;99.90;;;;;;5109982;27;20074;-60
2021/12/03 08:47:02;;;;;;;40.28;24.25;;;2.20;99.90;;;;;;5119175;27;20051;-60
2021/12/03 08:49:45;;;;;;;40.85;25.23;;;2.20;99.90;;;;;;5130824;27;20129;-61
2021/12/03 08:54:55;;;;;;;43.05;27.33;;;2.30;99.90;;;;;;5131875;27;20078;-60
2021/12/03 08:57:27;;;;;;;44.90;25.63;;;2.40;99.90;;;;;;5127357;27;20457;-60
2021/12/03 08:59:55;;;;;;;41.03;25.05;;;2.40;99.90;;;;;;5134210;27;20043;-60
2021/12/03 09:02:22;;;;;;;44.63;27.23;;;2.50;99.90;;;;;;5118717;27;20075;-60
2021/12/03 09:04:48;;;;;;;43.47;25.75;;;2.50;99.90;;;;;;5112709;28;20108;-60
2021/12/03 09:07:14;;;;;;;52.45;28.15;;;2.50;99.90;;;;;;5099430;27;20164;-60
2021/12/03 09:09:40;;;;;;;53.22;29.08;;;2.30;99.90;;;;;;5124982;27;20170;-60
2021/12/03 09:12:07;;;;;;;48.28;29.50;;;2.50;99.90;;;;;;5122364;27;20536;-60
2021/12/03 09:14:38;;;;;;;55.05;29.90;;;2.50;99.90;;;;;;5103927;27;20050;-60
2021/12/03 09:19:44;;;;;;;45.70;25.13;;;2.60;99.90;;;;;;5116620;27;20111;-61
2021/12/03 09:22:15;;;;;;;52.03;29.50;;;2.70;99.90;;;;;;5108432;27;20039;-60
2021/12/03 09:24:41;;;;;;;55.20;30.25;;;2.60;99.90;;;;;;5122215;27;20067;-60
2021/12/03 09:27:06;;;;;;;49.58;29.08;;;2.50;99.90;;;;;;5129404;27;20047;-60
2021/12/03 09:29:34;;;;;;;43.38;21.08;;;2.50;99.90;;;;;;5135210;27;20138;-62
2021/12/03 09:32:00;;;;;;;52.92;28.70;;;2.60;99.90;;;;;;5084362;27;20244;-60
2021/12/03 09:34:32;;;;;;;56.50;29.67;;;2.70;99.90;;;;;;5129811;27;20040;-60
2021/12/03 09:37:06;;;;;;;57.78;29.90;;;2.60;99.90;;;;;;5122967;27;20055;-60
2021/12/03 09:39:31;;;;;;;56.15;30.70;;;2.60;99.90;;;;;;5096035;28;20047;-60
2021/12/03 09:41:58;;;;;;;49.97;28.05;;;2.50;99.90;;;;;;5130674;27;20061;-60
2021/12/03 09:44:26;;;;;;;48.35;29.55;;;2.70;99.90;;;;;;5129608;27;20046;-60
2021/12/03 09:46:52;;;;;;;52.13;24.75;;;2.70;99.90;;;;;;5097632;27;20054;-60
2021/12/03 09:49:29;;;;;;;49.85;28.92;;;2.90;99.90;;;;;;5135219;27;20043;-61
2021/12/03 09:54:51;;;;;;;54.72;28.42;;;2.70;99.90;;;;;;5131539;27;20513;-60
2021/12/03 09:57:19;;;;;;;51.58;27.45;;;2.80;99.90;;;;;;5126739;27;20271;-60
2021/12/03 10:00:07;;;;;;;44.50;26.05;;;2.90;99.90;;;;;;5136568;27;20047;-60
2021/12/03 10:18:46;;;;;;;45.35;20.45;;;3.20;99.90;;;;;;5114736;27;20062;-60
2021/12/03 10:22:13;;;;;;;44.13;20.02;;;3.40;99.90;;;;;;5135515;27;20357;-60
2021/12/03 10:33:11;;;;;;;43.20;20.50;;;3.30;99.90;;;;;;5108339;27;20115;-60
2021/12/03 10:43:33;;;;;;;35.92;16.95;;;3.50;99.90;;;;;;5105767;28;20039;-60
2021/12/03 10:46:33;;;;;;;37.67;17.85;;;3.60;99.90;;;;;;5132991;27;20142;-60
2021/12/03 10:51:46;;;;;;;30.92;15.75;;;3.50;99.90;;;;;;5100974;27;20061;-60
2021/12/03 11:41:15;;;;;;;19.98;7.85;;;3.60;99.90;;;;;;5042997;28;20064;-60
2021/12/03 12:12:52;;;;;;;15.98;5.13;;;3.40;99.90;;;;;;5131078;28;20047;-60
2021/12/03 13:25:06;;;;;;;17.02;7.38;;;3.50;99.90;;;;;;5113791;27;20039;-61
2021/12/03 13:36:30;;;;;;;13.82;7.72;;;3.30;99.90;;;;;;5126009;27;20040;-61
2021/12/03 14:01:05;;;;;;;18.27;8.02;;;3.60;99.90;;;;;;5119751;27;20055;-60
2021/12/03 14:06:49;;;;;;;16.00;8.65;;;3.50;99.90;;;;;;5120944;27;20070;-60
2021/12/03 14:42:47;;;;;;;18.30;8.13;;;4.00;99.90;;;;;;5098347;27;20058;-61
2021/12/03 14:45:44;;;;;;;14.77;7.32;;;3.90;99.90;;;;;;5111854;27;20046;-61
2021/12/03 14:57:43;;;;;;;12.95;7.13;;;4.20;99.90;;;;;;5121166;27;20043;-61
2021/12/03 15:02:58;;;;;;;13.30;7.78;;;4.10;99.90;;;;;;5102321;27;20039;-61
2021/12/03 15:08:33;;;;;;;11.00;6.35;;;4.30;99.90;;;;;;5101587;28;20046;-61
2021/12/03 15:32:09;;;;;;;15.05;7.43;;;4.40;99.90;;;;;;5118993;28;20043;-61
2021/12/03 15:34:50;;;;;;;13.20;7.32;;;4.40;99.90;;;;;;5078463;28;20052;-60
2021/12/03 16:05:15;;;;;;;13.25;8.45;;;4.40;99.90;;;;;;5011365;28;20136;-60
2021/12/03 16:10:30;;;;;;;16.15;9.93;;;4.50;99.90;;;;;;5018296;28;20137;-60
2021/12/03 16:13:26;;;;;;;13.80;9.07;;;4.40;99.90;;;;;;4993042;28;20068;-60
2021/12/03 16:51:07;;;;;;;17.35;12.57;;;4.20;99.90;;;;;;5142315;27;20048;-60
2021/12/03 16:53:33;;;;;;;14.55;11.82;;;4.30;99.90;;;;;;5104282;27;20337;-61
2021/12/03 16:56:11;;;;;;;13.00;11.43;;;4.30;99.90;;;;;;5139996;27;20491;-61
2021/12/03 16:58:39;;;;;;;14.32;12.75;;;4.40;99.90;;;;;;5104470;27;20055;-61
2021/12/03 17:07:16;;;;;;;14.25;11.57;;;4.30;99.90;;;;;;5147891;27;20417;-61
2021/12/03 17:50:12;;;;;;;23.02;17.40;;;4.20;99.90;;;;;;4900091;29;20056;-60
2021/12/03 18:00:15;;;;;;;21.50;14.65;;;4.40;99.90;;;;;;4960446;28;20054;-60
2021/12/03 18:02:46;;;;;;;23.67;19.02;;;4.40;99.90;;;;;;4964596;28;20055;-59
2021/12/03 18:55:15;;;;;;;27.80;21.50;;;4.30;99.90;;;;;;5112980;27;20484;-59
2021/12/03 18:57:45;;;;;;;28.50;21.42;;;4.30;99.90;;;;;;5114794;27;20039;-59
2021/12/03 19:00:16;;;;;;;30.45;24.58;;;4.30;99.90;;;;;;5106529;27;20050;-59
2021/12/03 19:02:47;;;;;;;29.08;20.73;;;4.40;99.90;;;;;;5120546;27;20050;-59
2021/12/03 19:08:31;;;;;;;32.45;23.33;;;4.50;99.90;;;;;;5136802;27;20062;-59
2021/12/03 19:10:29;;;;;;;27.23;19.27;;;4.50;99.90;;;;;;5087546;27;20047;-59
2021/12/03 19:13:03;;;;;;;31.30;22.27;;;4.40;99.90;;;;;;5115155;27;20082;-59
2021/12/03 19:15:29;;;;;;;32.33;23.98;;;4.50;99.90;;;;;;5103974;27;20051;-59
2021/12/03 19:17:57;;;;;;;36.65;24.30;;;4.50;99.90;;;;;;5133747;27;20050;-60
2021/12/03 19:20:27;;;;;;;31.20;20.35;;;4.50;99.90;;;;;;5120126;27;20039;-59
2021/12/03 19:22:53;;;;;;;33.47;24.50;;;4.40;99.90;;;;;;5114450;27;20086;-59
2021/12/03 19:25:19;;;;;;;33.05;22.48;;;4.50;99.90;;;;;;5115201;27;20052;-58
2021/12/03 19:27:45;;;;;;;34.55;24.75;;;4.60;99.90;;;;;;5128836;27;20054;-58
2021/12/03 19:30:11;;;;;;;38.60;25.30;;;4.50;99.90;;;;;;5107777;28;20043;-59
2021/12/03 19:32:38;;;;;;;39.65;26.15;;;4.50;99.90;;;;;;5134150;27;20188;-59
2021/12/03 19:35:05;;;;;;;38.53;25.52;;;4.40;99.90;;;;;;5104339;27;20058;-59
2021/12/03 19:37:31;;;;;;;36.45;25.48;;;4.40;99.90;;;;;;5132478;28;20035;-59
2021/12/03 19:40:00;;;;;;;39.38;24.98;;;4.50;99.90;;;;;;5124045;27;20039;-60
2021/12/03 19:42:35;;;;;;;37.92;25.83;;;4.50;99.90;;;;;;5119472;28;20178;-59
2021/12/03 19:45:06;;;;;;;38.47;24.25;;;4.50;99.90;;;;;;5117473;27;20055;-60
2021/12/03 19:47:48;;;;;;;37.97;25.88;;;4.50;99.90;;;;;;5126860;28;20047;-59
2021/12/03 19:55:25;;;;;;;36.53;25.08;;;4.60;99.90;;;;;;5104574;27;20264;-59
2021/12/03 19:57:51;;;;;;;35.45;23.33;;;4.50;99.90;;;;;;5111915;28;20116;-59
2021/12/03 20:00:17;;;;;;;36.03;24.20;;;4.60;99.90;;;;;;5127983;27;20096;-59
2021/12/03 20:02:43;;;;;;;33.75;22.60;;;4.60;99.90;;;;;;5132928;27;20043;-59
2021/12/03 20:05:09;;;;;;;35.13;24.50;;;4.70;99.90;;;;;;5110086;27;20058;-59
2021/12/03 20:07:36;;;;;;;38.30;24.85;;;4.60;99.90;;;;;;5114785;28;20059;-58
2021/12/03 20:10:19;;;;;;;33.42;24.42;;;4.50;99.90;;;;;;5119883;27;20059;-60
2021/12/03 20:12:47;;;;;;;28.60;16.70;;;4.50;99.90;;;;;;5130569;27;20075;-59
2021/12/03 20:15:22;;;;;;;33.92;20.50;;;4.60;99.90;;;;;;5126543;27;20059;-59
2021/12/03 20:17:53;;;;;;;35.08;23.48;;;4.70;99.90;;;;;;5131153;27;20058;-59
2021/12/03 20:20:19;;;;;;;35.60;21.65;;;4.60;99.90;;;;;;5121122;27;20055;-59
2021/12/03 20:22:57;;;;;;;38.28;23.02;;;4.60;99.90;;;;;;5119597;27;20066;-59
2021/12/03 20:25:55;;;;;;;36.05;21.65;;;4.60;99.90;;;;;;5120083;27;20051;-59
2021/12/03 20:28:24;;;;;;;29.90;18.75;;;4.50;99.90;;;;;;5137271;27;20107;-59
2021/12/03 20:30:51;;;;;;;31.05;19.75;;;4.70;99.90;;;;;;5111440;27;20592;-59
2021/12/03 20:38:17;;;;;;;28.83;16.70;;;4.60;99.90;;;;;;5109549;27;20066;-59